createdAt,value
2023-04-23T00:02:01.360Z,8.10
2023-04-23T00:04:29.021Z,4.78
2023-04-23T00:06:55.927Z,4.97
2023-04-23T00:09:23.850Z,4.20
2023-04-23T00:11:50.564Z,5.55
2023-04-23T00:14:17.350Z,7.10
2023-04-23T00:16:44.263Z,4.68
2023-04-23T00:19:10.804Z,4.85
2023-04-23T00:21:37.708Z,5.20
2023-04-23T00:24:04.908Z,5.28
2023-04-23T00:26:31.359Z,5.18
2023-04-23T00:28:57.815Z,4.82
2023-04-23T00:31:27.145Z,5.55
2023-04-23T00:33:54.041Z,4.22
2023-04-23T00:36:20.520Z,7.00
2023-04-23T00:38:46.985Z,5.15
2023-04-23T00:41:14.895Z,10.68
2023-04-23T00:43:41.440Z,5.10
2023-04-23T00:46:07.975Z,9.95
2023-04-23T00:48:35.004Z,6.00
2023-04-23T00:51:06.342Z,6.28
2023-04-23T00:53:34.132Z,5.65
2023-04-23T00:56:04.559Z,6.45
2023-04-23T00:58:32.282Z,5.47
2023-04-23T01:00:59.231Z,7.10
2023-04-23T01:03:27.366Z,4.10
2023-04-23T01:05:56.677Z,5.38
2023-04-23T01:08:25.951Z,6.45
2023-04-23T01:10:53.762Z,5.43
2023-04-23T01:13:22.514Z,7.82
2023-04-23T01:15:49.636Z,6.05
2023-04-23T01:18:16.259Z,7.72
2023-04-23T01:20:43.713Z,6.35
2023-04-23T01:23:10.772Z,5.38
2023-04-23T01:25:37.899Z,8.00
2023-04-23T01:28:06.694Z,5.95
2023-04-23T01:30:33.473Z,6.82
2023-04-23T01:33:02.597Z,9.30
2023-04-23T01:35:30.086Z,5.32
2023-04-23T01:37:59.056Z,5.45
2023-04-23T01:40:25.585Z,5.82
2023-04-23T01:42:52.713Z,5.28
2023-04-23T01:45:19.842Z,4.75
2023-04-23T01:47:48.158Z,5.57
2023-04-23T01:50:14.899Z,5.47
2023-04-23T01:52:42.487Z,5.55
2023-04-23T01:55:09.646Z,5.53
2023-04-23T01:57:36.806Z,5.85
2023-04-23T02:00:12.242Z,7.70
2023-04-23T02:02:42.467Z,4.70
2023-04-23T02:05:12.452Z,6.13
2023-04-23T02:07:39.836Z,4.88
2023-04-23T02:10:07.963Z,5.32
2023-04-23T02:12:34.741Z,4.20
2023-04-23T02:15:01.729Z,4.85
2023-04-23T02:17:29.352Z,6.72
2023-04-23T02:19:56.499Z,7.70
2023-04-23T02:22:25.204Z,5.50
2023-04-23T02:24:55.237Z,5.05
2023-04-23T02:27:22.264Z,4.50
2023-04-23T02:29:49.960Z,4.75
2023-04-23T02:32:16.687Z,6.05
2023-04-23T02:34:43.422Z,3.50
2023-04-23T02:37:10.430Z,9.68
2023-04-23T02:39:39.179Z,4.55
2023-04-23T02:42:06.079Z,5.60
2023-04-23T02:44:33.118Z,5.32
2023-04-23T02:47:00.357Z,4.65
2023-04-23T02:49:27.065Z,4.45
2023-04-23T02:51:53.716Z,6.22
2023-04-23T02:54:20.299Z,4.25
2023-04-23T02:56:46.915Z,6.93
2023-04-23T02:59:13.618Z,6.90
2023-04-23T03:01:40.179Z,5.78
2023-04-23T03:04:09.162Z,8.00
2023-04-23T03:06:37.008Z,8.27
2023-04-23T03:09:04.054Z,4.82
2023-04-23T03:11:31.463Z,4.05
2023-04-23T03:13:58.349Z,4.20
2023-04-23T03:16:28.631Z,4.75
2023-04-23T03:18:55.789Z,3.97
2023-04-23T03:21:23.014Z,5.30
2023-04-23T03:23:50.153Z,3.47
2023-04-23T03:26:17.267Z,5.63
2023-04-23T03:28:43.771Z,5.43
2023-04-23T03:31:10.437Z,10.15
2023-04-23T03:33:37.017Z,9.30
2023-04-23T03:36:03.962Z,11.68
2023-04-23T03:38:32.387Z,15.45
2023-04-23T03:40:59.856Z,17.50
2023-04-23T03:43:26.913Z,16.13
2023-04-23T03:46:02.753Z,14.68
2023-04-23T03:48:32.391Z,18.80
2023-04-23T03:51:01.904Z,20.00
2023-04-23T03:53:42.416Z,18.55
2023-04-23T03:56:27.698Z,21.35
2023-04-23T03:59:07.307Z,21.92
2023-04-23T04:01:36.172Z,21.13
2023-04-23T04:04:03.516Z,21.08
2023-04-23T04:06:32.326Z,21.83
2023-04-23T04:08:58.744Z,24.00
2023-04-23T04:11:26.507Z,22.10
2023-04-23T04:13:53.101Z,20.77
2023-04-23T04:16:19.750Z,27.38
2023-04-23T04:18:46.331Z,24.27
2023-04-23T04:21:12.964Z,24.27
2023-04-23T04:23:39.953Z,23.30
2023-04-23T04:26:07.888Z,27.17
2023-04-23T04:28:36.338Z,29.30
2023-04-23T04:31:03.935Z,25.98
2023-04-23T04:33:30.682Z,26.48
2023-04-23T04:35:57.708Z,26.30
2023-04-23T04:38:24.260Z,30.38
2023-04-23T04:40:50.867Z,25.88
2023-04-23T04:43:17.788Z,26.88
2023-04-23T04:45:45.160Z,27.63
2023-04-23T04:48:12.028Z,25.90
2023-04-23T04:50:38.663Z,29.90
2023-04-23T04:53:05.288Z,29.15
2023-04-23T04:55:31.902Z,23.40
2023-04-23T04:57:58.719Z,27.48
2023-04-23T05:00:29.255Z,26.88
2023-04-23T05:02:57.457Z,29.48
2023-04-23T05:05:25.805Z,30.75
2023-04-23T05:07:54.321Z,27.58
2023-04-23T05:10:21.461Z,27.88
2023-04-23T05:12:48.014Z,30.48
2023-04-23T05:15:14.910Z,29.85
2023-04-23T05:17:42.085Z,28.63
2023-04-23T05:20:10.918Z,30.55
2023-04-23T05:22:41.797Z,27.55
2023-04-23T05:25:09.932Z,31.38
2023-04-23T05:27:36.437Z,27.17
2023-04-23T05:30:04.764Z,27.95
2023-04-23T05:32:31.765Z,27.35
2023-04-23T05:35:00.325Z,29.35
2023-04-23T05:37:27.226Z,35.00
2023-04-23T05:39:54.101Z,29.55
2023-04-23T05:42:20.716Z,27.35
2023-04-23T05:44:47.227Z,27.08
2023-04-23T05:47:14.636Z,27.77
2023-04-23T05:49:41.944Z,27.48
2023-04-23T05:52:09.177Z,30.08
2023-04-23T05:54:35.898Z,27.30
2023-04-23T05:57:03.190Z,29.42
2023-04-23T05:59:29.746Z,27.08
2023-04-23T06:01:56.422Z,25.20
2023-04-23T06:04:23.065Z,30.17
2023-04-23T06:06:49.644Z,29.30
2023-04-23T06:09:16.342Z,29.70
2023-04-23T06:11:42.848Z,33.10
2023-04-23T06:14:11.305Z,30.17
2023-04-23T06:16:37.878Z,30.58
2023-04-23T06:19:04.456Z,29.75
2023-04-23T06:21:32.439Z,28.05
2023-04-23T06:23:59.134Z,34.47
2023-04-23T06:26:25.600Z,28.73
2023-04-23T06:28:55.396Z,30.65
2023-04-23T06:31:28.429Z,30.98
2023-04-23T06:33:55.065Z,31.80
2023-04-23T06:36:21.642Z,34.10
2023-04-23T06:38:48.104Z,31.67
2023-04-23T06:41:15.394Z,31.95
2023-04-23T06:43:42.765Z,34.97
2023-04-23T06:46:30.638Z,33.78
2023-04-23T06:48:57.076Z,37.92
2023-04-23T06:51:26.883Z,37.47
2023-04-23T06:53:53.996Z,34.85
2023-04-23T06:56:21.463Z,35.90
2023-04-23T06:58:48.103Z,42.72
2023-04-23T07:01:20.613Z,37.00
2023-04-23T07:03:49.209Z,34.90
2023-04-23T07:06:16.317Z,34.72
2023-04-23T07:08:46.001Z,34.90
2023-04-23T07:11:12.649Z,36.13
2023-04-23T07:13:39.868Z,33.20
2023-04-23T07:16:06.704Z,31.20
2023-04-23T07:18:33.403Z,30.73
2023-04-23T07:21:00.039Z,29.50
2023-04-23T07:23:26.552Z,31.83
2023-04-23T07:25:53.008Z,33.53
2023-04-23T07:28:19.972Z,30.45
2023-04-23T07:30:46.838Z,32.03
2023-04-23T07:33:13.826Z,35.03
2023-04-23T07:35:40.437Z,32.22
2023-04-23T07:38:07.013Z,33.92
2023-04-23T07:40:33.931Z,28.95
2023-04-23T07:43:01.413Z,30.33
2023-04-23T07:45:28.066Z,27.08
2023-04-23T07:47:54.618Z,29.80
2023-04-23T07:50:21.422Z,28.55
2023-04-23T07:52:47.933Z,28.85
2023-04-23T07:55:14.576Z,30.13
2023-04-23T07:57:41.149Z,27.45
2023-04-23T08:00:11.366Z,31.20
2023-04-23T08:02:40.860Z,25.08
2023-04-23T08:05:08.335Z,27.48
2023-04-23T08:07:35.020Z,27.27
2023-04-23T08:10:06.300Z,27.55
2023-04-23T08:12:35.730Z,26.55
2023-04-23T08:15:02.684Z,30.15
2023-04-23T08:17:35.873Z,25.55
2023-04-23T08:20:04.042Z,26.27
2023-04-23T08:22:30.766Z,27.73
2023-04-23T08:24:57.428Z,24.02
2023-04-23T08:27:24.192Z,24.48
2023-04-23T08:29:51.803Z,23.67
2023-04-23T08:32:18.395Z,25.75
2023-04-23T08:34:45.274Z,19.65
2023-04-23T08:37:23.120Z,18.10
2023-04-23T08:39:54.053Z,21.98
2023-04-23T08:42:30.587Z,20.88
2023-04-23T08:44:57.745Z,19.80
2023-04-23T08:47:25.447Z,20.73
2023-04-23T08:49:56.649Z,18.98
2023-04-23T08:52:25.607Z,19.00
2023-04-23T08:55:00.197Z,21.33
2023-04-23T08:57:27.905Z,22.70
2023-04-23T08:59:55.430Z,19.48
2023-04-23T09:02:23.920Z,20.15
2023-04-23T09:04:52.910Z,17.45
2023-04-23T09:07:20.668Z,20.20
2023-04-23T09:09:47.298Z,15.35
2023-04-23T09:12:14.128Z,17.23
2023-04-23T09:14:40.974Z,15.27
2023-04-23T09:17:07.879Z,16.38
2023-04-23T09:19:36.552Z,16.25
2023-04-23T09:22:03.037Z,14.75
2023-04-23T09:24:30.506Z,14.70
2023-04-23T09:26:58.599Z,12.85
2023-04-23T09:29:25.322Z,15.18
2023-04-23T09:31:54.804Z,11.73
2023-04-23T09:34:25.342Z,13.32
2023-04-23T09:36:53.483Z,13.95
2023-04-23T09:39:23.329Z,13.45
2023-04-23T09:41:57.037Z,10.25
2023-04-23T09:44:24.287Z,10.90
2023-04-23T09:46:50.968Z,11.25
2023-04-23T09:49:17.809Z,10.25
2023-04-23T09:51:47.537Z,7.28
2023-04-23T09:54:26.112Z,10.02
2023-04-23T09:56:56.969Z,13.20
2023-04-23T09:59:46.077Z,13.68
2023-04-23T10:02:14.332Z,11.95
2023-04-23T10:04:41.900Z,10.15
2023-04-23T10:09:43.187Z,9.10
2023-04-23T10:12:27.679Z,8.25
2023-04-23T10:14:57.490Z,9.57
2023-04-23T10:17:25.827Z,9.20
2023-04-23T10:19:52.562Z,11.43
2023-04-23T10:22:21.724Z,7.07
2023-04-23T10:24:56.190Z,9.65
2023-04-23T10:27:40.256Z,9.98
2023-04-23T10:30:13.253Z,12.93
2023-04-23T10:32:41.373Z,11.55
2023-04-23T10:35:10.341Z,9.98
2023-04-23T10:37:38.267Z,10.45
2023-04-23T10:40:14.333Z,8.80
2023-04-23T10:42:43.058Z,7.57
2023-04-23T10:45:23.113Z,9.05
2023-04-23T10:47:52.800Z,7.57
2023-04-23T10:50:30.068Z,7.78
2023-04-23T10:52:58.154Z,11.55
2023-04-23T10:55:30.514Z,10.93
2023-04-23T10:58:08.430Z,7.70
2023-04-23T11:00:46.303Z,9.48
2023-04-23T11:03:44.419Z,8.45
2023-04-23T11:06:20.732Z,7.20
2023-04-23T11:08:54.553Z,8.23
2023-04-23T11:11:40.155Z,8.65
2023-04-23T11:14:16.160Z,8.15
2023-04-23T11:16:43.136Z,7.28
2023-04-23T11:19:12.595Z,9.02
2023-04-23T11:21:54.880Z,7.28
2023-04-23T11:24:32.224Z,6.28
2023-04-23T11:27:00.347Z,8.25
2023-04-23T11:29:28.907Z,5.88
2023-04-23T11:34:26.134Z,6.65
2023-04-23T11:36:54.827Z,8.55
2023-04-23T11:39:24.219Z,5.20
2023-04-23T11:41:52.304Z,8.23
2023-04-23T11:44:23.462Z,6.75
2023-04-23T11:46:50.514Z,5.70
2023-04-23T11:49:18.742Z,5.32
2023-04-23T11:51:46.553Z,6.57
2023-04-23T11:54:15.166Z,6.22
2023-04-23T11:56:42.367Z,9.13
2023-04-23T11:59:09.788Z,6.78
2023-04-23T12:01:44.955Z,6.68
2023-04-23T12:04:15.380Z,5.38
2023-04-23T12:06:44.245Z,6.55
2023-04-23T12:09:12.378Z,6.65
2023-04-23T12:11:43.341Z,7.65
2023-04-23T12:14:11.379Z,7.95
2023-04-23T12:16:40.120Z,4.80
2023-04-23T12:19:30.944Z,3.75
2023-04-23T12:22:00.666Z,4.38
2023-04-23T12:24:29.969Z,5.75
2023-04-23T12:27:00.460Z,3.85
2023-04-23T12:29:30.178Z,4.68
2023-04-23T12:31:59.614Z,3.58
2023-04-23T12:34:26.139Z,3.42
2023-04-23T12:36:55.415Z,4.68
2023-04-23T12:39:34.887Z,7.38
2023-04-23T12:42:05.700Z,7.53
2023-04-23T12:44:37.802Z,6.20
2023-04-23T12:47:09.278Z,3.50
2023-04-23T12:49:37.307Z,4.88
2023-04-23T12:52:05.271Z,4.88
2023-04-23T12:54:33.741Z,5.55
2023-04-23T12:57:03.958Z,3.70
2023-04-23T12:59:32.024Z,5.72
2023-04-23T13:02:03.044Z,3.13
2023-04-23T13:04:31.472Z,2.90
2023-04-23T13:06:57.971Z,3.33
2023-04-23T13:09:28.157Z,2.63
2023-04-23T13:11:55.238Z,3.33
2023-04-23T13:14:21.854Z,2.80
2023-04-23T13:16:49.266Z,4.05
2023-04-23T13:19:17.188Z,3.08
2023-04-23T13:21:44.787Z,1.83
2023-04-23T13:24:11.418Z,2.70
2023-04-23T13:26:38.153Z,1.95
2023-04-23T13:29:05.124Z,1.80
2023-04-23T13:31:32.007Z,2.13
2023-04-23T13:33:58.850Z,2.33
2023-04-23T13:36:25.834Z,2.25
2023-04-23T13:38:52.793Z,2.53
2023-04-23T13:41:19.242Z,3.38
2023-04-23T13:43:45.708Z,4.32
2023-04-23T13:46:12.648Z,2.78
2023-04-23T13:48:39.170Z,2.13
2023-04-23T13:51:11.409Z,3.97
2023-04-23T13:53:48.476Z,3.20
2023-04-23T13:56:15.293Z,2.65
2023-04-23T13:58:45.298Z,2.45
2023-04-23T14:01:13.479Z,2.20
2023-04-23T14:03:40.197Z,3.35
2023-04-23T14:06:07.125Z,2.35
2023-04-23T14:08:33.827Z,2.00
2023-04-23T14:11:00.841Z,1.80
2023-04-23T14:13:27.351Z,2.53
2023-04-23T14:15:54.042Z,2.28
2023-04-23T14:18:21.054Z,2.97
2023-04-23T14:20:47.957Z,1.77
2023-04-23T14:23:23.467Z,1.80
2023-04-23T14:26:04.065Z,1.42
2023-04-23T14:28:39.062Z,1.73
2023-04-23T14:31:05.836Z,1.67
2023-04-23T14:33:32.607Z,1.35
2023-04-23T14:35:59.304Z,1.58
2023-04-23T14:38:26.777Z,1.52
2023-04-23T14:40:53.798Z,1.23
2023-04-23T14:43:20.309Z,2.22
2023-04-23T14:45:47.040Z,1.02
2023-04-23T14:48:13.746Z,3.05
2023-04-23T14:50:40.522Z,1.80
2023-04-23T14:53:10.134Z,1.60
2023-04-23T14:55:37.066Z,1.85
2023-04-23T14:58:03.845Z,1.65
2023-04-23T15:00:30.574Z,1.10
2023-04-23T15:02:57.415Z,1.65
2023-04-23T15:05:24.253Z,2.10
2023-04-23T15:07:51.734Z,2.05
2023-04-23T15:10:18.952Z,1.77
2023-04-23T15:13:01.152Z,1.77
2023-04-23T15:15:44.523Z,1.85
2023-04-23T15:18:14.030Z,1.63
2023-04-23T15:20:41.372Z,1.65
2023-04-23T15:23:07.954Z,1.33
2023-04-23T15:25:35.750Z,1.63
2023-04-23T15:28:03.611Z,2.20
2023-04-23T15:30:30.292Z,1.33
2023-04-23T15:32:57.572Z,0.88
2023-04-23T15:35:25.651Z,0.93
2023-04-23T15:37:52.925Z,0.98
2023-04-23T15:40:19.942Z,1.67
2023-04-23T15:42:47.359Z,2.30
2023-04-23T15:45:14.006Z,0.63
2023-04-23T15:47:42.090Z,1.20
2023-04-23T15:50:10.137Z,1.00
2023-04-23T15:52:37.557Z,0.93
2023-04-23T15:55:07.625Z,0.90
2023-04-23T15:57:34.260Z,3.70
2023-04-23T16:00:01.386Z,0.80
2023-04-23T16:02:38.632Z,1.27
2023-04-23T16:05:05.565Z,1.25
2023-04-23T16:07:32.194Z,0.82
2023-04-23T16:09:58.768Z,0.98
2023-04-23T16:12:25.344Z,1.45
2023-04-23T16:14:52.461Z,2.10
2023-04-23T16:17:19.247Z,1.30
2023-04-23T16:19:46.466Z,0.90
2023-04-23T16:22:14.745Z,0.70
2023-04-23T16:24:41.388Z,0.77
2023-04-23T16:27:10.809Z,0.40
2023-04-23T16:29:38.142Z,0.30
2023-04-23T16:32:05.636Z,0.55
2023-04-23T16:34:32.600Z,0.70
2023-04-23T16:37:00.019Z,0.70
2023-04-23T16:39:27.080Z,0.60
2023-04-23T16:41:53.842Z,1.60
2023-04-23T16:44:20.377Z,0.82
2023-04-23T16:46:46.965Z,1.95
2023-04-23T16:49:13.759Z,0.57
2023-04-23T16:51:40.524Z,0.88
2023-04-23T16:54:07.129Z,0.75
2023-04-23T16:56:33.932Z,1.30
2023-04-23T16:59:00.770Z,2.58
2023-04-23T17:01:27.728Z,0.45
2023-04-23T17:03:54.769Z,0.93
2023-04-23T17:06:31.549Z,1.55
2023-04-23T17:09:00.438Z,1.30
2023-04-23T17:11:28.640Z,2.15
2023-04-23T17:13:56.198Z,0.93
2023-04-23T17:16:26.637Z,2.25
2023-04-23T17:18:54.334Z,1.75
2023-04-23T17:21:21.560Z,1.70
2023-04-23T17:23:48.217Z,2.50
2023-04-23T17:26:14.919Z,0.90
2023-04-23T17:28:41.847Z,1.58
2023-04-23T17:31:09.022Z,1.25
2023-04-23T17:33:36.374Z,1.20
2023-04-23T17:36:03.341Z,0.70
2023-04-23T17:38:29.959Z,1.95
2023-04-23T17:40:56.559Z,1.20
2023-04-23T17:43:23.061Z,1.48
2023-04-23T17:45:49.735Z,0.95
2023-04-23T17:48:16.838Z,1.20
2023-04-23T17:50:44.190Z,1.27
2023-04-23T17:53:10.865Z,1.38
2023-04-23T17:55:37.460Z,1.10
2023-04-23T17:58:07.160Z,0.45
2023-04-23T18:00:35.634Z,1.00
2023-04-23T18:03:02.906Z,1.85
2023-04-23T18:05:29.715Z,1.60
2023-04-23T18:07:56.512Z,1.48
2023-04-23T18:10:23.487Z,0.98
2023-04-23T18:12:50.247Z,1.27
2023-04-23T18:15:16.876Z,1.15
2023-04-23T18:17:43.490Z,1.65
2023-04-23T18:20:10.374Z,3.65
2023-04-23T18:22:38.283Z,1.25
2023-04-23T18:25:06.545Z,2.75
2023-04-23T18:27:34.247Z,3.20
2023-04-23T18:30:01.325Z,2.25
2023-04-23T18:32:34.334Z,2.33
2023-04-23T18:35:02.511Z,3.05
2023-04-23T18:37:37.736Z,1.83
2023-04-23T18:40:06.108Z,2.95
2023-04-23T18:42:34.593Z,3.55
2023-04-23T18:45:04.067Z,1.90
2023-04-23T18:47:37.040Z,2.22
2023-04-23T18:50:09.713Z,3.05
2023-04-23T18:52:36.307Z,1.52
2023-04-23T18:55:03.292Z,2.45
2023-04-23T18:57:30.086Z,3.22
2023-04-23T18:59:57.180Z,3.33
2023-04-23T19:02:34.416Z,1.70
2023-04-23T19:05:02.212Z,2.47
2023-04-23T19:07:28.761Z,2.88
2023-04-23T19:09:55.430Z,3.55
2023-04-23T19:12:22.044Z,4.30
2023-04-23T19:14:48.710Z,2.85
2023-04-23T19:17:17.983Z,4.30
2023-04-23T19:19:46.850Z,3.75
2023-04-23T19:22:14.618Z,4.00
2023-04-23T19:24:41.376Z,3.35
2023-04-23T19:27:09.239Z,2.38
2023-04-23T19:29:36.057Z,3.10
2023-04-23T19:32:02.878Z,3.92
2023-04-23T19:34:29.599Z,6.93
2023-04-23T19:36:56.261Z,2.38
2023-04-23T19:39:23.889Z,2.47
2023-04-23T19:41:50.525Z,5.13
2023-04-23T19:44:17.155Z,2.22
2023-04-23T19:46:45.811Z,3.60
2023-04-23T19:49:12.365Z,4.25
2023-04-23T19:51:42.160Z,3.15
2023-04-23T19:54:08.624Z,4.13
2023-04-23T19:56:35.201Z,3.17
2023-04-23T19:59:01.806Z,3.78
2023-04-23T20:01:30.877Z,3.63
2023-04-23T20:03:57.752Z,2.22
2023-04-23T20:06:24.700Z,3.20
2023-04-23T20:09:18.146Z,2.97
2023-04-23T20:11:46.078Z,3.63
2023-04-23T20:14:13.016Z,3.05
2023-04-23T20:16:40.923Z,4.15
2023-04-23T20:19:11.292Z,3.45
2023-04-23T20:21:39.270Z,4.28
2023-04-23T20:24:07.785Z,3.10
2023-04-23T20:26:35.520Z,3.78
2023-04-23T20:29:02.481Z,3.55
2023-04-23T20:31:29.387Z,3.75
2023-04-23T20:33:56.746Z,4.13
2023-04-23T20:36:28.745Z,6.40
2023-04-23T20:38:58.092Z,2.97
2023-04-23T20:41:26.469Z,2.35
2023-04-23T20:43:53.033Z,2.35
2023-04-23T20:46:19.689Z,2.00
2023-04-23T20:48:46.188Z,6.10
2023-04-23T20:51:13.066Z,3.50
2023-04-23T20:53:39.682Z,2.78
2023-04-23T20:56:06.381Z,2.55
2023-04-23T20:58:32.972Z,4.28
2023-04-23T21:01:00.149Z,4.25
2023-04-23T21:03:27.208Z,2.53
2023-04-23T21:05:54.041Z,2.22
2023-04-23T21:08:21.219Z,3.47
2023-04-23T21:10:47.861Z,3.55
2023-04-23T21:13:14.681Z,4.70
2023-04-23T21:15:41.652Z,2.90
2023-04-23T21:18:09.885Z,2.83
2023-04-23T21:20:36.498Z,1.42
2023-04-23T21:23:03.250Z,3.20
2023-04-23T21:25:29.787Z,2.33
2023-04-23T21:27:57.000Z,2.15
2023-04-23T21:30:41.513Z,2.13
2023-04-23T21:33:08.149Z,1.73
2023-04-23T21:35:34.611Z,1.40
2023-04-23T21:38:01.696Z,2.25
2023-04-23T21:40:28.361Z,1.30
2023-04-23T21:42:55.029Z,2.03
2023-04-23T21:45:21.483Z,4.07
2023-04-23T21:47:48.063Z,1.58
2023-04-23T21:50:17.402Z,2.80
2023-04-23T21:52:44.011Z,2.53
2023-04-23T21:55:12.422Z,2.20
2023-04-23T21:57:39.445Z,2.00
2023-04-23T22:00:07.748Z,2.05
2023-04-23T22:02:40.857Z,1.20
2023-04-23T22:05:09.250Z,2.50
2023-04-23T22:07:39.761Z,6.95
2023-04-23T22:10:08.070Z,3.70
2023-04-23T22:12:35.008Z,3.05
2023-04-23T22:15:01.830Z,2.08
2023-04-23T22:17:30.649Z,2.65
2023-04-23T22:19:57.195Z,2.63
2023-04-23T22:22:23.836Z,1.85
2023-04-23T22:24:50.476Z,1.67
2023-04-23T22:27:16.952Z,2.08
2023-04-23T22:29:43.683Z,2.83
2023-04-23T22:32:11.999Z,2.58
2023-04-23T22:34:38.662Z,3.17
2023-04-23T22:37:05.793Z,3.33
2023-04-23T22:39:32.292Z,1.40
2023-04-23T22:41:58.961Z,2.17
2023-04-23T22:44:25.453Z,1.35
2023-04-23T22:46:53.046Z,1.60
2023-04-23T22:49:19.632Z,1.42
2023-04-23T22:51:49.074Z,1.63
2023-04-23T22:54:16.838Z,1.13
2023-04-23T22:56:43.496Z,2.85
2023-04-23T22:59:13.201Z,2.28
2023-04-23T23:01:43.012Z,1.90
2023-04-23T23:04:09.927Z,2.15
2023-04-23T23:06:36.420Z,2.20
2023-04-23T23:09:03.066Z,2.40
2023-04-23T23:11:29.673Z,3.28
2023-04-23T23:13:56.322Z,2.33
2023-04-23T23:16:23.560Z,6.45
2023-04-23T23:18:50.194Z,5.05
2023-04-23T23:21:16.769Z,2.05
2023-04-23T23:23:45.347Z,4.88
2023-04-23T23:26:12.138Z,3.25
2023-04-23T23:28:39.150Z,3.58
2023-04-23T23:31:05.682Z,1.98
2023-04-23T23:33:32.438Z,1.48
2023-04-23T23:35:58.919Z,1.73
2023-04-23T23:38:25.711Z,2.35
2023-04-23T23:40:52.569Z,2.85
2023-04-23T23:43:19.112Z,1.25
2023-04-23T23:45:46.172Z,1.50
2023-04-23T23:48:13.044Z,1.85
2023-04-23T23:50:39.610Z,2.63
2023-04-23T23:53:06.138Z,1.48
2023-04-23T23:55:32.656Z,2.03
2023-04-23T23:58:01.077Z,1.42
